Time;durP1;ratioP1;P1;durP2;ratioP2;P2;SDS_P1;SDS_P2;PMS_P1;PMS_P2;Temp;Humidity;BMP_temperature;BMP_pressure;BME280_temperature;BME280_humidity;BME280_pressure;Samples;Min_cycle;Max_cycle;Signal;HPM_P1;HPM_P2
2024/01/20 00:00:32;;;;;;;44.63;21.63;;;;;;;-2.62;100.00;102406.78;5071800;28;20102;-46
2024/01/20 00:03:00;;;;;;;46.47;20.27;;;;;;;-2.65;100.00;102407.59;5071567;28;20044;-44
2024/01/20 00:05:28;;;;;;;44.72;20.77;;;;;;;-2.68;100.00;102411.84;5071685;28;20531;-44
2024/01/20 00:07:59;;;;;;;43.90;20.60;;;;;;;-2.74;100.00;102398.03;5071434;28;20407;-46
2024/01/20 00:10:27;;;;;;;47.78;21.55;;;;;;;-2.72;100.00;102403.19;5071615;28;20063;-45
2024/01/20 00:12:56;;;;;;;42.95;20.95;;;;;;;-2.74;100.00;102399.72;5069930;28;20049;-45
2024/01/20 00:15:25;;;;;;;49.28;20.48;;;;;;;-2.77;100.00;102400.56;5070901;28;20565;-46
2024/01/20 00:17:53;;;;;;;43.97;20.23;;;;;;;-2.75;100.00;102410.88;5071657;28;20079;-48
2024/01/20 00:20:21;;;;;;;45.20;19.58;;;;;;;-2.74;100.00;102417.75;5070263;28;20049;-47
2024/01/20 00:22:52;;;;;;;44.03;20.80;;;;;;;-2.73;100.00;102414.34;5071592;28;20040;-45
2024/01/20 00:25:21;;;;;;;46.10;20.50;;;;;;;-2.77;100.00;102417.72;5071371;28;20555;-48
2024/01/20 00:27:50;;;;;;;47.75;21.20;;;;;;;-2.79;100.00;102409.09;5071450;28;20496;-48
2024/01/20 00:30:20;;;;;;;43.30;20.48;;;;;;;-2.82;100.00;102416.75;5073836;28;20503;-47
2024/01/20 00:32:52;;;;;;;47.53;20.38;;;;;;;-2.84;100.00;102418.47;5074996;28;20054;-46
2024/01/20 00:35:20;;;;;;;47.03;19.88;;;;;;;-2.85;100.00;102416.72;5075030;28;20501;-47
2024/01/20 00:37:48;;;;;;;42.22;20.67;;;;;;;-2.84;100.00;102415.88;5074887;28;20131;-47
2024/01/20 00:40:16;;;;;;;45.30;21.02;;;;;;;-2.85;100.00;102419.31;5074803;28;20060;-47
2024/01/20 00:42:48;;;;;;;44.67;19.85;;;;;;;-2.86;100.00;102422.72;5074884;28;20067;-49
2024/01/20 00:45:16;;;;;;;45.65;19.83;;;;;;;-2.90;100.00;102425.25;5074799;28;20052;-47
2024/01/20 00:47:45;;;;;;;43.80;18.90;;;;;;;-2.93;100.00;102420.06;5074879;28;20040;-46
2024/01/20 00:50:13;;;;;;;46.92;20.92;;;;;;;-2.92;100.00;102416.63;5071345;28;20055;-47
2024/01/20 00:52:42;;;;;;;48.83;20.42;;;;;;;-2.96;100.00;102422.59;5071129;28;20053;-47
2024/01/20 00:55:11;;;;;;;47.15;20.67;;;;;;;-2.91;100.00;102427.78;5074774;28;20033;-49
2024/01/20 00:57:39;;;;;;;48.25;21.73;;;;;;;-2.95;100.00;102421.72;5074598;28;20056;-48
2024/01/20 01:00:10;;;;;;;46.67;20.80;;;;;;;-2.94;100.00;102426.03;5074671;28;20044;-51
2024/01/20 01:02:40;;;;;;;44.70;20.38;;;;;;;-2.95;100.00;102414.00;5074451;28;20076;-49
2024/01/20 01:05:09;;;;;;;47.70;20.10;;;;;;;-2.94;100.00;102412.31;5074577;28;20044;-46
2024/01/20 01:07:37;;;;;;;49.70;21.52;;;;;;;-2.96;100.00;102416.56;5074589;28;20067;-46
2024/01/20 01:10:07;;;;;;;48.65;19.95;;;;;;;-2.99;100.00;102411.34;5074235;28;20048;-46
2024/01/20 01:12:36;;;;;;;52.15;21.50;;;;;;;-3.00;100.00;102407.94;5071813;28;20435;-48
2024/01/20 01:15:05;;;;;;;50.17;20.70;;;;;;;-2.96;100.00;102416.56;5069337;28;20064;-45
2024/01/20 01:17:34;;;;;;;46.33;19.35;;;;;;;-2.98;100.00;102419.09;5074346;28;20051;-45
2024/01/20 01:20:04;;;;;;;53.53;22.58;;;;;;;-2.98;100.00;102415.69;5074040;28;20048;-47
2024/01/20 01:22:33;;;;;;;48.65;21.40;;;;;;;-2.99;100.00;102419.94;5074137;28;20106;-45
2024/01/20 01:25:01;;;;;;;48.95;21.02;;;;;;;-2.98;100.00;102429.41;5074075;28;20040;-45
2024/01/20 01:27:32;;;;;;;47.83;21.42;;;;;;;-2.98;100.00;102421.69;5074192;28;20067;-46
2024/01/20 01:30:00;;;;;;;48.33;21.95;;;;;;;-2.95;100.00;102426.88;5073935;28;20091;-45
2024/01/20 01:32:28;;;;;;;49.67;20.20;;;;;;;-2.92;100.00;102424.38;5073929;28;20042;-45
2024/01/20 01:34:58;;;;;;;50.25;19.50;;;;;;;-2.92;100.00;102432.09;5073571;28;20123;-45
2024/01/20 01:37:26;;;;;;;56.00;22.55;;;;;;;-2.91;100.00;102428.66;5073246;28;20131;-47
2024/01/20 01:39:57;;;;;;;47.88;20.10;;;;;;;-2.92;100.00;102437.25;5073489;28;20048;-47
2024/01/20 01:42:28;;;;;;;47.90;21.70;;;;;;;-2.93;100.00;102443.22;5073126;28;20511;-45
2024/01/20 01:44:56;;;;;;;46.78;18.90;;;;;;;-2.95;100.00;102439.75;5073541;28;20063;-48
2024/01/20 01:47:24;;;;;;;47.97;20.77;;;;;;;-2.92;100.00;102452.69;5073488;28;20072;-47
2024/01/20 01:49:53;;;;;;;47.22;20.15;;;;;;;-2.91;100.00;102446.69;5073574;28;20109;-46
2024/01/20 01:52:24;;;;;;;42.30;19.23;;;;;;;-2.90;100.00;102445.84;5073499;28;20442;-47
2024/01/20 01:54:53;;;;;;;45.10;18.52;;;;;;;-2.92;100.00;102449.22;5073395;28;20044;-48
2024/01/20 01:57:22;;;;;;;49.42;21.35;;;;;;;-2.95;100.00;102442.31;5073385;28;20052;-47
2024/01/20 01:59:51;;;;;;;48.95;20.73;;;;;;;-2.93;100.00;102457.78;5073275;28;20045;-46
2024/01/20 02:02:19;;;;;;;49.13;18.63;;;;;;;-2.95;100.00;102462.06;5072706;28;20040;-44
2024/01/20 02:04:47;;;;;;;45.67;19.95;;;;;;;-2.97;100.00;102466.31;5072825;28;20399;-45
2024/01/20 02:07:16;;;;;;;41.60;19.83;;;;;;;-2.99;100.00;102465.44;5073059;28;20053;-49
2024/01/20 02:09:47;;;;;;;45.92;20.25;;;;;;;-2.97;100.00;102466.31;5073152;28;20056;-46
2024/01/20 02:12:15;;;;;;;43.63;18.85;;;;;;;-2.98;100.00;102469.75;5073259;28;20044;-48
2024/01/20 02:14:45;;;;;;;51.00;19.52;;;;;;;-2.98;100.00;102469.75;5073074;28;20072;-47
2024/01/20 02:17:13;;;;;;;46.22;19.10;;;;;;;-2.96;100.00;102475.78;5073060;28;20040;-47
2024/01/20 02:19:44;;;;;;;44.88;19.02;;;;;;;-2.95;100.00;102474.94;5073160;28;20064;-49
2024/01/20 02:22:14;;;;;;;46.78;20.90;;;;;;;-2.98;100.00;102470.59;5072985;28;20543;-45
2024/01/20 02:24:48;;;;;;;48.15;19.85;;;;;;;-2.99;100.00;102473.16;5072389;28;20072;-46
2024/01/20 02:27:18;;;;;;;42.15;17.35;;;;;;;-2.98;100.00;102470.59;5072712;28;20059;-47
2024/01/20 02:29:48;;;;;;;46.30;18.90;;;;;;;-2.96;100.00;102480.91;5073336;28;20068;-47
2024/01/20 02:32:17;;;;;;;49.25;18.85;;;;;;;-2.93;100.00;102474.13;5072886;28;20059;-47
2024/01/20 02:34:45;;;;;;;53.60;19.23;;;;;;;-2.95;100.00;102475.78;5072857;28;20052;-46
2024/01/20 02:37:15;;;;;;;48.35;19.27;;;;;;;-2.90;100.00;102469.03;5072555;28;20041;-47
2024/01/20 02:39:46;;;;;;;47.92;18.73;;;;;;;-2.91;100.00;102475.00;5072831;28;20041;-46
2024/01/20 02:42:14;;;;;;;44.00;19.02;;;;;;;-2.93;100.00;102476.69;5072442;28;20115;-49
2024/01/20 02:44:45;;;;;;;41.55;17.70;;;;;;;-2.93;100.00;102473.25;5072248;28;20094;-50
2024/01/20 02:47:13;;;;;;;47.28;19.33;;;;;;;-2.94;100.00;102474.09;5068950;28;20049;-49
2024/01/20 02:49:41;;;;;;;46.90;18.77;;;;;;;-2.94;100.00;102476.69;5068759;28;20190;-48
2024/01/20 02:52:12;;;;;;;44.58;18.05;;;;;;;-2.98;100.00;102473.16;5068868;28;20040;-49
2024/01/20 02:54:43;;;;;;;48.22;18.63;;;;;;;-2.96;100.00;102471.50;5069687;28;20044;-49
2024/01/20 02:57:11;;;;;;;43.20;17.98;;;;;;;-2.98;100.00;102473.16;5071235;28;20050;-50
2024/01/20 02:59:39;;;;;;;46.90;17.95;;;;;;;-3.00;100.00;102477.44;5068205;28;20063;-52
2024/01/20 03:02:08;;;;;;;46.47;18.42;;;;;;;-3.01;100.00;102478.28;5068629;28;20049;-51
2024/01/20 03:04:36;;;;;;;41.88;17.90;;;;;;;-3.00;100.00;102480.03;5069085;28;20055;-50
2024/01/20 03:07:04;;;;;;;40.35;17.23;;;;;;;-2.99;100.00;102478.31;5068901;28;20049;-50
2024/01/20 03:09:32;;;;;;;48.25;18.42;;;;;;;-2.99;100.00;102474.00;5069283;28;20052;-50
2024/01/20 03:12:02;;;;;;;40.70;17.27;;;;;;;-2.99;100.00;102478.31;5069286;28;20604;-52
2024/01/20 03:14:30;;;;;;;47.70;18.88;;;;;;;-2.95;100.00;102486.09;5068667;28;20037;-49
2024/01/20 03:16:59;;;;;;;42.20;17.30;;;;;;;-2.99;100.00;102483.44;5067830;28;20051;-51
2024/01/20 03:19:27;;;;;;;40.30;16.50;;;;;;;-3.00;100.00;102476.56;5068849;28;20063;-50
2024/01/20 03:21:55;;;;;;;39.55;16.77;;;;;;;-2.99;100.00;102474.00;5069262;28;20052;-52
2024/01/20 03:24:23;;;;;;;41.00;17.17;;;;;;;-3.01;100.00;102474.81;5071188;28;20049;-50
2024/01/20 03:26:54;;;;;;;45.88;17.48;;;;;;;-3.03;100.00;102471.38;5068975;28;20131;-50
2024/01/20 03:29:26;;;;;;;39.90;16.98;;;;;;;-3.06;100.00;102473.03;5069514;28;20060;-50
2024/01/20 03:31:55;;;;;;;41.42;18.20;;;;;;;-3.08;100.00;102479.88;5072251;28;20466;-54
2024/01/20 03:34:23;;;;;;;41.10;17.55;;;;;;;-3.09;100.00;102482.44;5069026;28;20041;-50
2024/01/20 03:36:51;;;;;;;39.47;16.38;;;;;;;-3.10;100.00;102483.25;5068880;28;20051;-51
2024/01/20 03:39:19;;;;;;;44.05;16.67;;;;;;;-3.10;100.00;102485.84;5067690;28;20442;-52
2024/01/20 03:41:47;;;;;;;43.63;16.60;;;;;;;-3.08;100.00;102486.72;5070356;28;20098;-51
2024/01/20 03:44:15;;;;;;;44.60;17.38;;;;;;;-3.09;100.00;102483.28;5070647;28;20094;-50
2024/01/20 03:46:45;;;;;;;37.08;16.30;;;;;;;-3.12;100.00;102487.50;5069131;28;20137;-49
2024/01/20 03:49:13;;;;;;;41.70;18.27;;;;;;;-3.10;100.00;102490.97;5068218;28;20527;-50
2024/01/20 03:51:41;;;;;;;37.33;15.68;;;;;;;-3.11;100.00;102491.81;5068095;28;20135;-49
2024/01/20 03:54:10;;;;;;;42.90;17.80;;;;;;;-3.13;100.00;102496.94;5070150;28;20045;-49
2024/01/20 03:56:43;;;;;;;37.45;15.93;;;;;;;-3.11;100.00;102509.84;5068676;28;20048;-47
2024/01/20 03:59:11;;;;;;;41.92;16.35;;;;;;;-3.13;100.00;102512.38;5068015;28;20048;-50
2024/01/20 04:01:40;;;;;;;39.00;16.65;;;;;;;-3.18;100.00;102506.28;5070851;28;20076;-47
2024/01/20 04:04:10;;;;;;;43.17;16.17;;;;;;;-3.18;100.00;102514.00;5072605;28;20048;-50
2024/01/20 04:06:38;;;;;;;44.55;16.98;;;;;;;-3.18;100.00;102513.16;5075609;28;20041;-48
2024/01/20 04:09:08;;;;;;;40.13;15.82;;;;;;;-3.18;100.00;102514.00;5075169;28;20045;-49
2024/01/20 04:11:37;;;;;;;39.00;16.52;;;;;;;-3.15;100.00;102513.19;5073439;28;20052;-49
2024/01/20 04:14:05;;;;;;;37.33;16.00;;;;;;;-3.19;100.00;102507.13;5071325;28;20094;-53
2024/01/20 04:16:33;;;;;;;41.83;16.90;;;;;;;-3.19;100.00;102499.41;5071002;28;20086;-49
2024/01/20 04:19:01;;;;;;;40.58;16.90;;;;;;;-3.21;100.00;102497.66;5072021;28;20055;-50
2024/01/20 04:21:31;;;;;;;41.95;15.50;;;;;;;-3.24;100.00;102494.16;5073279;28;20032;-47
2024/01/20 04:23:59;;;;;;;40.85;17.52;;;;;;;-3.27;100.00;102501.84;5073665;28;20515;-49
2024/01/20 04:26:27;;;;;;;40.22;16.55;;;;;;;-3.26;100.00;102503.59;5072214;28;20052;-51
2024/01/20 04:28:55;;;;;;;35.38;15.73;;;;;;;-3.27;100.00;102499.25;5074407;28;20518;-50
2024/01/20 04:31:23;;;;;;;40.95;16.63;;;;;;;-3.29;100.00;102502.63;5073637;28;20084;-48
2024/01/20 04:33:53;;;;;;;36.78;15.60;;;;;;;-3.31;100.00;102506.88;5074840;28;20036;-51
2024/01/20 04:36:21;;;;;;;43.75;16.83;;;;;;;-3.31;100.00;102510.34;5072922;28;20453;-49
2024/01/20 04:38:51;;;;;;;39.70;16.27;;;;;;;-3.28;100.00;102499.25;5072382;28;20127;-49
2024/01/20 04:41:19;;;;;;;38.55;16.05;;;;;;;-3.28;100.00;102505.25;5072312;28;20048;-51
2024/01/20 04:43:47;;;;;;;45.25;17.63;;;;;;;-3.28;100.00;102499.25;5069988;28;20087;-51
2024/01/20 04:46:16;;;;;;;44.35;17.63;;;;;;;-3.27;100.00;102503.56;5071749;28;20055;-51
2024/01/20 04:48:44;;;;;;;44.55;15.85;;;;;;;-3.27;100.00;102508.69;5071397;28;20049;-47
2024/01/20 04:51:12;;;;;;;40.38;16.25;;;;;;;-3.32;100.00;102513.75;5073558;28;20044;-48
2024/01/20 04:53:40;;;;;;;40.53;17.13;;;;;;;-3.33;100.00;102508.56;5074642;28;20403;-51
2024/01/20 04:56:10;;;;;;;40.92;16.25;;;;;;;-3.34;100.00;102510.28;5073231;28;20063;-48
2024/01/20 04:58:38;;;;;;;41.25;16.88;;;;;;;-3.34;100.00;102517.13;5074502;28;20059;-49
2024/01/20 05:01:06;;;;;;;41.22;17.15;;;;;;;-3.34;100.00;102511.97;5074405;28;20515;-46
2024/01/20 05:03:35;;;;;;;41.67;17.80;;;;;;;-3.34;100.00;102520.59;5072082;28;20393;-48
2024/01/20 05:06:04;;;;;;;40.58;15.30;;;;;;;-3.35;100.00;102520.53;5071701;28;20113;-48
2024/01/20 05:08:32;;;;;;;40.30;16.67;;;;;;;-3.35;100.00;102528.25;5070666;28;20055;-48
2024/01/20 05:11:00;;;;;;;37.75;17.50;;;;;;;-3.34;100.00;102536.03;5074095;28;20052;-48
2024/01/20 05:13:31;;;;;;;43.28;16.45;;;;;;;-3.37;100.00;102538.50;5073235;28;20056;-49
2024/01/20 05:15:59;;;;;;;40.88;16.35;;;;;;;-3.36;100.00;102540.25;5070166;28;20251;-51
2024/01/20 05:18:28;;;;;;;42.28;17.02;;;;;;;-3.38;100.00;102544.53;5072969;28;20387;-47
2024/01/20 05:20:56;;;;;;;41.15;16.30;;;;;;;-3.39;100.00;102542.78;5071271;28;20054;-52
2024/01/20 05:23:24;;;;;;;38.60;16.40;;;;;;;-3.38;100.00;102552.25;5071468;28;20045;-50
2024/01/20 05:25:52;;;;;;;37.22;16.80;;;;;;;-3.34;100.00;102548.88;5070535;28;20052;-49
2024/01/20 05:28:23;;;;;;;39.78;16.35;;;;;;;-3.33;100.00;102549.75;5071814;28;20036;-50
2024/01/20 05:30:52;;;;;;;38.22;15.90;;;;;;;-3.34;100.00;102558.28;5074114;28;20127;-48
2024/01/20 05:33:21;;;;;;;35.90;15.40;;;;;;;-3.36;100.00;102557.41;5073784;28;20394;-50
2024/01/20 05:35:49;;;;;;;36.53;15.73;;;;;;;-3.33;100.00;102562.59;5073797;28;20044;-48
2024/01/20 05:38:18;;;;;;;38.75;15.95;;;;;;;-3.31;100.00;102559.22;5073593;28;20400;-51
2024/01/20 05:40:46;;;;;;;35.55;15.98;;;;;;;-3.33;100.00;102555.75;5072617;28;20546;-51
2024/01/20 05:43:14;;;;;;;33.13;15.25;;;;;;;-3.32;100.00;102566.94;5070285;28;20044;-49
2024/01/20 05:45:42;;;;;;;35.65;15.25;;;;;;;-3.36;100.00;102555.69;5072114;28;20427;-52
2024/01/20 05:48:12;;;;;;;39.40;16.27;;;;;;;-3.37;100.00;102563.38;5068038;28;20044;-52
2024/01/20 05:50:40;;;;;;;38.03;16.17;;;;;;;-3.38;100.00;102564.22;5070608;28;20053;-51
2024/01/20 05:53:12;;;;;;;42.45;16.77;;;;;;;-3.41;100.00;102570.16;5073636;28;20079;-49
2024/01/20 05:55:40;;;;;;;40.00;15.18;;;;;;;-3.41;100.00;102567.59;5073712;28;20052;-53
2024/01/20 05:58:08;;;;;;;41.30;16.40;;;;;;;-3.37;100.00;102568.53;5073279;28;20561;-51
2024/01/20 06:00:36;;;;;;;35.08;16.70;;;;;;;-3.37;100.00;102563.38;5072792;28;20064;-51
2024/01/20 06:03:05;;;;;;;40.92;16.55;;;;;;;-3.37;100.00;102560.81;5069604;28;20051;-50
2024/01/20 06:05:34;;;;;;;34.45;15.18;;;;;;;-3.37;100.00;102565.97;5069566;28;20035;-47
2024/01/20 06:08:03;;;;;;;38.20;15.50;;;;;;;-3.37;100.00;102568.53;5069681;28;20048;-49
2024/01/20 06:10:31;;;;;;;44.10;15.48;;;;;;;-3.36;100.00;102565.13;5070159;28;20125;-49
2024/01/20 06:13:02;;;;;;;36.80;13.82;;;;;;;-3.38;100.00;102572.81;5072756;28;20051;-47
2024/01/20 06:15:30;;;;;;;36.90;15.02;;;;;;;-3.37;100.00;102571.09;5073121;28;20044;-48
2024/01/20 06:17:58;;;;;;;37.15;16.10;;;;;;;-3.39;100.00;102571.09;5073033;28;20076;-47
2024/01/20 06:20:27;;;;;;;39.25;15.75;;;;;;;-3.39;100.00;102578.81;5072744;28;20050;-48
2024/01/20 06:22:59;;;;;;;37.97;14.82;;;;;;;-3.38;100.00;102583.13;5070652;28;20545;-48
2024/01/20 06:25:31;;;;;;;37.53;16.55;;;;;;;-3.37;100.00;102584.81;5067668;28;20044;-48
2024/01/20 06:28:00;;;;;;;34.72;15.30;;;;;;;-3.36;100.00;102584.00;5068778;28;20491;-48
2024/01/20 06:30:28;;;;;;;38.13;15.70;;;;;;;-3.36;100.00;102591.72;5073030;28;20380;-48
2024/01/20 06:32:57;;;;;;;36.53;15.50;;;;;;;-3.36;100.00;102586.56;5072733;28;20557;-46
2024/01/20 06:35:25;;;;;;;35.15;15.48;;;;;;;-3.36;100.00;102584.00;5072503;28;20094;-46
2024/01/20 06:37:54;;;;;;;36.30;14.70;;;;;;;-3.36;100.00;102581.44;5072446;28;20055;-45
2024/01/20 06:40:23;;;;;;;37.17;15.38;;;;;;;-3.32;100.00;102583.22;5072525;28;20067;-48
2024/01/20 06:42:51;;;;;;;40.90;16.10;;;;;;;-3.29;100.00;102580.69;5073065;28;20048;-46
2024/01/20 06:45:19;;;;;;;41.95;14.85;;;;;;;-3.28;100.00;102584.16;5071045;28;20041;-49
2024/01/20 06:47:48;;;;;;;39.58;15.48;;;;;;;-3.30;100.00;102585.81;5067336;28;20430;-46
2024/01/20 06:50:16;;;;;;;38.72;15.50;;;;;;;-3.32;100.00;102579.78;5071235;28;20051;-49
2024/01/20 06:52:45;;;;;;;37.75;15.50;;;;;;;-3.34;100.00;102581.44;5072648;28;20522;-44
2024/01/20 06:55:13;;;;;;;35.47;16.25;;;;;;;-3.32;100.00;102582.38;5072497;28;20472;-48
2024/01/20 06:57:42;;;;;;;36.63;16.17;;;;;;;-3.33;100.00;102581.47;5072267;28;20044;-47
2024/01/20 07:00:12;;;;;;;36.25;16.25;;;;;;;-3.33;100.00;102581.47;5071998;28;20057;-49
2024/01/20 07:02:40;;;;;;;34.67;14.75;;;;;;;-3.36;100.00;102585.72;5072421;28;20047;-49
2024/01/20 07:05:10;;;;;;;39.10;15.93;;;;;;;-3.37;100.00;102584.81;5072165;28;20041;-46
2024/01/20 07:07:38;;;;;;;41.05;16.70;;;;;;;-3.34;100.00;102582.34;5071009;28;20106;-50
2024/01/20 07:10:08;;;;;;;31.80;14.38;;;;;;;-3.31;100.00;102584.09;5071805;28;20064;-45
2024/01/20 07:12:39;;;;;;;34.38;15.55;;;;;;;-3.32;100.00;102593.53;5071830;28;20052;-46
2024/01/20 07:15:12;;;;;;;36.85;15.00;;;;;;;-3.31;100.00;102592.69;5071108;28;20045;-45
2024/01/20 07:17:40;;;;;;;37.58;15.45;;;;;;;-3.32;100.00;102597.81;5072141;28;20451;-44
2024/01/20 07:20:10;;;;;;;36.63;14.85;;;;;;;-3.29;100.00;102596.16;5072077;28;20047;-45
2024/01/20 07:22:38;;;;;;;35.20;14.43;;;;;;;-3.28;100.00;102597.03;5072133;28;20044;-45
2024/01/20 07:25:07;;;;;;;36.13;15.95;;;;;;;-3.30;100.00;102591.84;5071923;28;20052;-44
2024/01/20 07:27:38;;;;;;;38.05;14.70;;;;;;;-3.27;100.00;102602.22;5072190;28;20051;-45
2024/01/20 07:30:08;;;;;;;40.75;16.05;;;;;;;-3.28;100.00;102604.75;5071910;28;20101;-46
2024/01/20 07:32:39;;;;;;;39.70;15.63;;;;;;;-3.29;100.00;102605.59;5071950;28;20496;-47
2024/01/20 07:35:08;;;;;;;36.85;15.15;;;;;;;-3.28;100.00;102597.03;5071228;28;20044;-46
2024/01/20 07:37:41;;;;;;;36.47;14.60;;;;;;;-3.27;100.00;102612.50;5071681;28;20056;-45
2024/01/20 07:40:10;;;;;;;35.45;14.90;;;;;;;-3.28;100.00;102605.59;5074753;28;20436;-45
2024/01/20 07:42:40;;;;;;;33.22;14.32;;;;;;;-3.28;100.00;102615.91;5076294;28;20047;-46
2024/01/20 07:45:09;;;;;;;35.03;14.88;;;;;;;-3.27;100.00;102604.78;5075792;28;20044;-52
2024/01/20 07:47:39;;;;;;;33.38;14.60;;;;;;;-3.28;100.00;102608.19;5074801;28;20041;-49
2024/01/20 07:50:08;;;;;;;33.67;13.82;;;;;;;-3.25;100.00;102610.81;5070856;28;20460;-48
2024/01/20 07:52:38;;;;;;;34.15;14.23;;;;;;;-3.23;100.00;102614.31;5074483;28;20743;-52
2024/01/20 07:55:08;;;;;;;38.72;13.23;;;;;;;-3.21;100.00;102621.19;5072701;28;20507;-51
2024/01/20 07:57:36;;;;;;;30.90;14.05;;;;;;;-3.23;100.00;102616.03;5071981;28;20052;-50
2024/01/20 08:00:06;;;;;;;36.85;15.40;;;;;;;-3.20;100.00;102621.22;5072142;28;20045;-51
2024/01/20 08:02:36;;;;;;;37.08;15.18;;;;;;;-3.15;100.00;102624.75;5072065;28;20123;-52
2024/01/20 08:05:07;;;;;;;31.95;14.15;;;;;;;-3.13;100.00;102625.66;5072242;28;20045;-50
2024/01/20 08:07:35;;;;;;;35.13;15.85;;;;;;;-3.04;100.00;102630.13;5072070;28;20442;-49
2024/01/20 08:10:04;;;;;;;39.88;15.25;;;;;;;-3.00;100.00;102633.63;5071987;28;20533;-49
2024/01/20 08:12:32;;;;;;;34.40;14.30;;;;;;;-2.95;100.00;102629.44;5071852;28;20441;-48
2024/01/20 08:15:00;;;;;;;36.47;16.08;;;;;;;-2.92;100.00;102632.94;5071779;28;20047;-51
2024/01/20 08:17:28;;;;;;;36.67;16.20;;;;;;;-2.91;100.00;102639.81;5073343;28;20476;-49
2024/01/20 08:19:56;;;;;;;36.25;14.93;;;;;;;-2.86;100.00;102628.72;5075316;28;20068;-51
2024/01/20 08:22:26;;;;;;;37.53;14.75;;;;;;;-2.78;100.00;102640.03;5075270;28;20118;-45
2024/01/20 08:24:56;;;;;;;38.70;16.00;;;;;;;-2.77;100.00;102634.94;5075288;28;20583;-46
2024/01/20 08:27:24;;;;;;;35.60;15.13;;;;;;;-2.72;100.00;102643.59;5074923;28;20391;-46
2024/01/20 08:29:52;;;;;;;39.75;16.52;;;;;;;-2.68;100.00;102646.25;5072992;28;20054;-46
2024/01/20 08:32:20;;;;;;;39.70;15.13;;;;;;;-2.61;100.00;102635.22;5071964;28;20048;-46
2024/01/20 08:34:49;;;;;;;34.97;15.85;;;;;;;-2.57;100.00;102635.28;5074718;28;20049;-46
2024/01/20 08:37:17;;;;;;;38.28;14.65;;;;;;;-2.45;100.00;102629.50;5074299;28;20041;-45
2024/01/20 08:39:47;;;;;;;36.97;14.95;;;;;;;-2.39;100.00;102634.78;5074694;28;20590;-48
2024/01/20 08:42:15;;;;;;;36.63;15.57;;;;;;;-2.32;100.00;102632.28;5075126;28;20438;-47
2024/01/20 08:44:45;;;;;;;39.03;16.23;;;;;;;-2.21;100.00;102631.63;5074897;28;20046;-47
2024/01/20 08:47:16;;;;;;;35.22;15.98;;;;;;;-2.13;100.00;102633.47;5073271;28;20495;-48
2024/01/20 08:49:44;;;;;;;38.47;15.68;;;;;;;-2.09;100.00;102638.69;5074503;28;20553;-46
2024/01/20 08:52:15;;;;;;;38.33;15.70;;;;;;;-2.07;100.00;102638.75;5074833;28;20048;-46
2024/01/20 08:54:43;;;;;;;33.80;15.63;;;;;;;-1.97;100.00;102638.03;5074842;28;20048;-46
2024/01/20 08:57:12;;;;;;;34.00;14.77;;;;;;;-1.95;100.00;102640.63;5074525;28;20045;-47
2024/01/20 08:59:41;;;;;;;34.15;15.35;;;;;;;-1.89;100.00;102654.50;5074460;28;20044;-46
2024/01/20 09:02:10;;;;;;;35.53;15.68;;;;;;;-1.84;100.00;102661.44;5074685;28;20133;-47
2024/01/20 09:04:41;;;;;;;35.40;14.90;;;;;;;-1.79;100.00;102659.78;5074362;28;20396;-49
2024/01/20 09:07:09;;;;;;;36.55;15.50;;;;;;;-1.76;100.00;102675.31;5072941;28;20062;-47
2024/01/20 09:09:37;;;;;;;36.47;15.43;;;;;;;-1.73;100.00;102671.06;5074140;28;20091;-48
2024/01/20 09:12:06;;;;;;;37.13;15.73;;;;;;;-1.71;100.00;102678.84;5074560;28;20044;-48
2024/01/20 09:14:37;;;;;;;31.35;14.55;;;;;;;-1.67;100.00;102674.59;5074309;28;20041;-47
2024/01/20 09:17:05;;;;;;;33.15;15.32;;;;;;;-1.63;100.00;102678.97;5074069;28;20082;-49
2024/01/20 09:19:33;;;;;;;35.38;15.52;;;;;;;-1.59;100.00;102691.06;5074131;28;20579;-47
2024/01/20 09:22:02;;;;;;;34.90;15.68;;;;;;;-1.52;100.00;102682.56;5074404;28;20047;-47
2024/01/20 09:24:31;;;;;;;30.40;14.65;;;;;;;-1.52;100.00;102674.81;5073979;28;20051;-48
2024/01/20 09:26:59;;;;;;;37.95;14.95;;;;;;;-1.51;100.00;102691.16;5073717;28;20040;-52
2024/01/20 09:29:27;;;;;;;35.30;15.18;;;;;;;-1.47;100.00;102687.78;5070150;28;20040;-52
2024/01/20 09:31:57;;;;;;;32.60;14.98;;;;;;;-1.44;100.00;102682.69;5070458;28;20076;-52
2024/01/20 09:34:26;;;;;;;35.85;14.90;;;;;;;-1.42;100.00;102686.13;5070111;28;20519;-49
2024/01/20 09:36:54;;;;;;;35.88;14.73;;;;;;;-1.39;100.00;102688.75;5069491;28;20044;-51
2024/01/20 09:39:22;;;;;;;33.80;16.17;;;;;;;-1.40;100.00;102687.91;5072963;28;20046;-50
2024/01/20 09:41:51;;;;;;;32.42;15.25;;;;;;;-1.37;100.00;102695.69;5073815;28;20080;-51
2024/01/20 09:44:20;;;;;;;33.35;15.10;;;;;;;-1.36;100.00;102704.31;5073315;28;20036;-46
2024/01/20 09:46:48;;;;;;;32.97;15.70;;;;;;;-1.33;100.00;102709.50;5073291;28;20044;-46
2024/01/20 09:49:17;;;;;;;34.05;15.52;;;;;;;-1.28;100.00;102705.28;5072286;28;20052;-46
2024/01/20 09:51:51;;;;;;;31.80;14.93;;;;;;;-1.24;100.00;102701.00;5073557;28;20048;-48
2024/01/20 09:54:21;;;;;;;36.42;15.75;;;;;;;-1.22;100.00;102701.91;5070588;28;20554;-46
2024/01/20 09:56:49;;;;;;;31.25;14.18;;;;;;;-1.20;100.00;102702.78;5071052;28;20094;-47
2024/01/20 09:59:22;;;;;;;30.75;15.88;;;;;;;-1.18;100.00;102708.84;5073174;28;20064;-50
2024/01/20 10:01:52;;;;;;;36.17;15.40;;;;;;;-1.13;100.00;102708.91;5069932;28;20048;-46
2024/01/20 10:04:25;;;;;;;32.58;15.13;;;;;;;-1.10;100.00;102715.00;5068147;28;20052;-48
2024/01/20 10:06:54;;;;;;;33.00;14.90;;;;;;;-1.07;100.00;102719.34;5072296;28;20032;-46
2024/01/20 10:09:22;;;;;;;31.83;14.20;;;;;;;-1.03;100.00;102721.97;5070055;28;20037;-48
2024/01/20 10:11:51;;;;;;;32.97;14.77;;;;;;;-1.02;100.00;102725.44;5071749;28;21146;-47
2024/01/20 10:14:19;;;;;;;29.95;15.00;;;;;;;-0.97;100.00;102715.16;5073068;28;20055;-48
2024/01/20 10:16:47;;;;;;;30.08;13.80;;;;;;;-0.93;100.00;102717.78;5073068;28;20052;-49
2024/01/20 10:19:15;;;;;;;30.83;13.77;;;;;;;-0.90;100.00;102720.44;5071770;28;20058;-49
2024/01/20 10:21:45;;;;;;;30.27;15.25;;;;;;;-0.86;100.00;102724.78;5073017;28;20083;-51
2024/01/20 10:24:13;;;;;;;31.08;16.33;;;;;;;-0.84;100.00;102726.53;5071636;28;20049;-49
2024/01/20 10:26:42;;;;;;;31.00;14.77;;;;;;;-0.81;100.00;102730.00;5069978;28;20068;-49
2024/01/20 10:29:11;;;;;;;33.08;14.52;;;;;;;-0.80;100.00;102718.81;5071416;28;20055;-49
2024/01/20 10:31:39;;;;;;;29.20;13.35;;;;;;;-0.74;100.00;102718.88;5072401;28;20049;-49
2024/01/20 10:34:07;;;;;;;27.02;13.05;;;;;;;-0.73;100.00;102737.84;5069064;28;20095;-50
2024/01/20 10:36:37;;;;;;;28.33;13.60;;;;;;;-0.70;100.00;102730.97;5069750;28;20203;-51
2024/01/20 10:39:09;;;;;;;28.77;13.43;;;;;;;-0.65;100.00;102727.63;5071339;28;20122;-51
2024/01/20 10:41:41;;;;;;;;;;;;;;;-0.67;100.00;102730.16;5073369;28;20101;-50
2024/01/20 10:44:14;;;;;;;26.40;13.23;;;;;;;-0.66;100.00;102729.31;5072728;28;19920;-50
2024/01/20 10:46:47;;;;;;;28.42;13.82;;;;;;;-0.59;100.00;102720.78;5071453;28;20041;-50
2024/01/20 10:49:18;;;;;;;30.20;13.57;;;;;;;-0.71;100.00;102723.22;5069071;28;20924;-53
2024/01/20 10:51:47;;;;;;;30.85;14.73;;;;;;;-0.65;100.00;102722.44;5071125;28;20094;-50
2024/01/20 10:54:18;;;;;;;30.77;13.80;;;;;;;-0.63;100.00;102728.50;5072457;28;20526;-53
2024/01/20 10:56:46;;;;;;;25.48;13.50;;;;;;;-0.60;100.00;102736.28;5069540;28;20449;-53
2024/01/20 10:59:17;;;;;;;25.80;13.05;;;;;;;-0.65;100.00;102735.38;5068167;28;20040;-49
2024/01/20 11:01:46;;;;;;;29.92;13.10;;;;;;;-0.63;100.00;102734.50;5067184;28;20048;-52
2024/01/20 11:04:19;;;;;;;29.77;14.65;;;;;;;-0.59;100.00;102738.00;5068683;28;20041;-49
2024/01/20 11:06:47;;;;;;;;;;;;;;;-0.58;100.00;102738.03;5069836;28;20054;-49
2024/01/20 11:09:22;;;;;;;32.33;14.18;;;;;;;-0.62;100.00;102730.22;5068813;28;19920;-49